Time;durP1;ratioP1;P1;durP2;ratioP2;P2;SDS_P1;SDS_P2;PMS_P1;PMS_P2;Temp;Humidity;BMP_temperature;BMP_pressure;BME280_temperature;BME280_humidity;BME280_pressure;Samples;Min_cycle;Max_cycle;Signal;HPM_P1;HPM_P2
2022/10/12 00:01:26;;;;;;;7.28;2.58;;;;;;;;;;5059658;28;20035;-77
2022/10/12 00:03:53;;;;;;;9.68;3.17;;;;;;;;;;5079316;28;20040;-77
2022/10/12 00:06:20;;;;;;;7.68;3.42;;;;;;;;;;5067554;28;20484;-78
2022/10/12 00:08:47;;;;;;;6.63;2.60;;;;;;;;;;5051827;28;20139;-77
2022/10/12 00:11:24;;;;;;;14.57;2.90;;;;;;;;;;5067431;28;20040;-76
2022/10/12 00:13:50;;;;;;;7.60;2.63;;;;;;;;;;5066493;28;20029;-77
2022/10/12 00:16:17;;;;;;;9.55;2.78;;;;;;;;;;5050577;28;20024;-77
2022/10/12 00:18:44;;;;;;;5.93;3.03;;;;;;;;;;5085511;28;20024;-77
2022/10/12 00:21:14;;;;;;;11.25;3.20;;;;;;;;;;5067433;28;20464;-77
2022/10/12 00:23:41;;;;;;;7.68;2.60;;;;;;;;;;5066763;28;20080;-77
2022/10/12 00:26:10;;;;;;;8.68;2.90;;;;;;;;;;5066252;28;20086;-76
2022/10/12 00:28:36;;;;;;;11.77;2.83;;;;;;;;;;5084510;28;20040;-76
2022/10/12 00:31:07;;;;;;;8.98;2.95;;;;;;;;;;5063910;28;20036;-76
2022/10/12 00:33:33;;;;;;;6.53;2.75;;;;;;;;;;5065228;28;20032;-77
2022/10/12 00:35:59;;;;;;;5.50;2.28;;;;;;;;;;5064561;28;20065;-76
2022/10/12 00:38:25;;;;;;;7.07;2.83;;;;;;;;;;5057109;28;20024;-77
2022/10/12 00:40:51;;;;;;;11.32;2.45;;;;;;;;;;5061140;28;20028;-77
2022/10/12 00:43:44;;;;;;;6.97;2.55;;;;;;;;;;5065922;28;20075;-77
2022/10/12 00:46:29;;;;;;;4.07;2.30;;;;;;;;;;5046680;28;20028;-77
2022/10/12 00:49:01;;;;;;;9.93;3.43;;;;;;;;;;5050439;28;20111;-77
2022/10/12 00:51:27;;;;;;;8.05;2.60;;;;;;;;;;5066606;28;20047;-77
2022/10/12 00:53:59;;;;;;;8.68;3.22;;;;;;;;;;5051643;28;20059;-77
2022/10/12 00:56:27;;;;;;;8.35;2.35;;;;;;;;;;5068783;28;20402;-77
2022/10/12 00:58:54;;;;;;;7.45;3.45;;;;;;;;;;5067132;28;20075;-76
2022/10/12 01:01:21;;;;;;;6.28;2.88;;;;;;;;;;5029058;28;20062;-76
2022/10/12 01:03:48;;;;;;;5.35;2.30;;;;;;;;;;5068876;28;20032;-77
2022/10/12 01:06:14;;;;;;;7.00;2.88;;;;;;;;;;5069099;28;20491;-77
2022/10/12 01:08:41;;;;;;;6.03;2.45;;;;;;;;;;5061917;28;20831;-76
2022/10/12 01:11:07;;;;;;;8.32;2.72;;;;;;;;;;5054039;28;20093;-77
2022/10/12 01:13:33;;;;;;;10.18;2.92;;;;;;;;;;5071920;28;20452;-76
2022/10/12 01:16:12;;;;;;;7.28;2.50;;;;;;;;;;5049910;28;20382;-77
2022/10/12 01:18:43;;;;;;;4.25;2.83;;;;;;;;;;5062206;28;20027;-76
2022/10/12 01:21:17;;;;;;;8.57;2.53;;;;;;;;;;5066906;28;20032;-76
2022/10/12 01:23:43;;;;;;;5.45;2.55;;;;;;;;;;5066687;28;20135;-77
2022/10/12 01:26:18;;;;;;;7.90;2.97;;;;;;;;;;5044424;28;20032;-75
2022/10/12 01:28:44;;;;;;;;;;;;;;;;;;5080329;28;20028;-77
2022/10/12 01:31:19;;;;;;;7.00;2.40;;;;;;;;;;5068247;28;19916;-78
2022/10/12 01:33:49;;;;;;;6.55;3.22;;;;;;;;;;5050385;28;20362;-77
2022/10/12 01:36:16;;;;;;;5.63;3.05;;;;;;;;;;5048481;28;20448;-77
2022/10/12 01:39:03;;;;;;;4.90;2.72;;;;;;;;;;5055202;28;20047;-76
2022/10/12 01:41:29;;;;;;;6.95;2.63;;;;;;;;;;5065168;28;20024;-76
2022/10/12 01:43:55;;;;;;;6.57;2.50;;;;;;;;;;5070543;28;20028;-77
2022/10/12 01:46:21;;;;;;;7.57;2.83;;;;;;;;;;5065673;28;20035;-77
2022/10/12 01:48:49;;;;;;;6.47;2.78;;;;;;;;;;5046706;28;20112;-77
2022/10/12 01:51:29;;;;;;;10.07;3.45;;;;;;;;;;5065592;28;20481;-77
2022/10/12 01:54:10;;;;;;;9.00;3.28;;;;;;;;;;5065149;28;20078;-76
2022/10/12 01:56:54;;;;;;;7.43;2.80;;;;;;;;;;5043843;28;20016;-76
2022/10/12 01:59:43;;;;;;;8.85;3.53;;;;;;;;;;5046699;28;20829;-77
2022/10/12 02:02:19;;;;;;;9.02;2.92;;;;;;;;;;5065651;28;20023;-76
2022/10/12 02:05:05;;;;;;;9.20;2.70;;;;;;;;;;5061892;28;20385;-76
2022/10/12 02:07:37;;;;;;;7.85;2.78;;;;;;;;;;5048163;28;20094;-76
2022/10/12 02:10:05;;;;;;;9.23;3.25;;;;;;;;;;5059134;28;20028;-77
2022/10/12 02:12:31;;;;;;;11.25;3.10;;;;;;;;;;5063896;28;20025;-77
2022/10/12 02:15:00;;;;;;;6.82;2.58;;;;;;;;;;5060526;28;20059;-77
2022/10/12 02:17:26;;;;;;;12.60;2.75;;;;;;;;;;5058334;28;20653;-77
2022/10/12 02:19:57;;;;;;;9.90;3.42;;;;;;;;;;5065706;28;20040;-77
2022/10/12 02:22:25;;;;;;;12.05;3.25;;;;;;;;;;5044967;28;20578;-77
2022/10/12 02:24:52;;;;;;;8.80;2.90;;;;;;;;;;5063677;28;20440;-77
2022/10/12 02:27:18;;;;;;;8.05;3.10;;;;;;;;;;5068254;28;20033;-77
2022/10/12 02:29:46;;;;;;;9.35;3.47;;;;;;;;;;5057747;28;20025;-77
2022/10/12 02:32:15;;;;;;;8.30;3.00;;;;;;;;;;5065833;28;20028;-76
2022/10/12 02:34:47;;;;;;;9.73;4.47;;;;;;;;;;5051927;28;20013;-77
2022/10/12 02:37:13;;;;;;;10.30;3.40;;;;;;;;;;5065877;28;20099;-76
2022/10/12 02:39:43;;;;;;;9.40;3.05;;;;;;;;;;5059446;28;20084;-77
2022/10/12 02:42:12;;;;;;;10.13;3.85;;;;;;;;;;5054491;28;20054;-77
2022/10/12 02:44:39;;;;;;;11.77;3.47;;;;;;;;;;5066915;28;20017;-77
2022/10/12 02:47:07;;;;;;;7.32;2.72;;;;;;;;;;5072615;28;20222;-77
2022/10/12 02:49:34;;;;;;;7.20;2.72;;;;;;;;;;5062965;28;20048;-77
2022/10/12 02:52:01;;;;;;;6.72;2.85;;;;;;;;;;5048913;28;20769;-77
2022/10/12 02:54:28;;;;;;;13.50;3.78;;;;;;;;;;5056735;28;20021;-77
2022/10/12 02:56:54;;;;;;;7.75;3.00;;;;;;;;;;5063863;28;20039;-77
2022/10/12 02:59:20;;;;;;;8.00;2.47;;;;;;;;;;5052086;28;20496;-76
2022/10/12 03:01:46;;;;;;;6.30;3.03;;;;;;;;;;5048815;28;20522;-76
2022/10/12 03:04:12;;;;;;;12.82;3.15;;;;;;;;;;5043990;28;20862;-77
2022/10/12 03:06:38;;;;;;;8.85;3.40;;;;;;;;;;5058383;28;20043;-77
2022/10/12 03:09:04;;;;;;;7.15;2.60;;;;;;;;;;5065381;28;20032;-76
2022/10/12 03:11:31;;;;;;;5.25;2.80;;;;;;;;;;5062143;28;20025;-77
2022/10/12 03:13:57;;;;;;;6.40;3.50;;;;;;;;;;5050443;28;20024;-77
2022/10/12 03:16:23;;;;;;;6.85;4.05;;;;;;;;;;5049243;28;20343;-76
2022/10/12 03:18:50;;;;;;;11.48;4.20;;;;;;;;;;5063040;28;20413;-77
2022/10/12 03:21:16;;;;;;;9.27;3.38;;;;;;;;;;5057800;28;20580;-76
2022/10/12 03:23:42;;;;;;;4.97;2.30;;;;;;;;;;5060968;28;20044;-77
2022/10/12 03:26:09;;;;;;;11.32;2.55;;;;;;;;;;5046972;28;20474;-77
2022/10/12 03:28:35;;;;;;;4.00;2.08;;;;;;;;;;5060303;28;20040;-77
2022/10/12 03:31:01;;;;;;;6.60;2.38;;;;;;;;;;5051378;28;20642;-76
2022/10/12 03:33:27;;;;;;;5.00;2.17;;;;;;;;;;5063123;28;20032;-76
2022/10/12 03:35:53;;;;;;;7.13;3.65;;;;;;;;;;5067030;28;20079;-76
2022/10/12 03:38:21;;;;;;;8.80;3.10;;;;;;;;;;5064549;28;20131;-77
2022/10/12 03:40:47;;;;;;;6.63;2.42;;;;;;;;;;5066170;28;20028;-77
2022/10/12 03:43:14;;;;;;;7.30;2.45;;;;;;;;;;5072438;28;20032;-77
2022/10/12 03:45:40;;;;;;;5.10;2.03;;;;;;;;;;5064573;28;20073;-77
2022/10/12 03:48:06;;;;;;;5.32;2.30;;;;;;;;;;5051768;28;20033;-77
2022/10/12 03:50:33;;;;;;;5.22;3.92;;;;;;;;;;5057964;28;20032;-77
2022/10/12 03:53:00;;;;;;;2.97;2.63;;;;;;;;;;5050462;28;20041;-77
2022/10/12 03:55:26;;;;;;;4.03;2.28;;;;;;;;;;5066444;28;20082;-77
2022/10/12 03:57:53;;;;;;;5.72;2.28;;;;;;;;;;5052587;28;20568;-77
2022/10/12 04:00:19;;;;;;;7.40;2.10;;;;;;;;;;5071511;28;20539;-76
2022/10/12 04:02:45;;;;;;;4.45;2.08;;;;;;;;;;5049848;28;20115;-76
2022/10/12 04:05:12;;;;;;;3.53;1.90;;;;;;;;;;5065470;28;20503;-77
2022/10/12 04:07:38;;;;;;;4.55;2.45;;;;;;;;;;5052196;28;20024;-77
2022/10/12 04:10:05;;;;;;;2.97;2.00;;;;;;;;;;5071204;28;20032;-78
2022/10/12 04:12:31;;;;;;;5.65;2.50;;;;;;;;;;5043239;28;20115;-76
2022/10/12 04:14:57;;;;;;;3.90;2.42;;;;;;;;;;5049900;28;20378;-77
2022/10/12 04:17:23;;;;;;;9.00;2.40;;;;;;;;;;5059637;28;20504;-77
2022/10/12 04:19:49;;;;;;;3.72;2.13;;;;;;;;;;5048733;28;20112;-74
2022/10/12 04:22:15;;;;;;;4.68;2.83;;;;;;;;;;5052422;28;20036;-77
2022/10/12 04:24:41;;;;;;;2.65;2.20;;;;;;;;;;5063201;28;20138;-77
2022/10/12 04:27:08;;;;;;;3.58;2.05;;;;;;;;;;5070130;28;20464;-77
2022/10/12 04:29:34;;;;;;;5.90;3.15;;;;;;;;;;5063651;28;20113;-77
2022/10/12 04:32:00;;;;;;;4.40;1.70;;;;;;;;;;5064615;28;20029;-76
2022/10/12 04:34:26;;;;;;;6.68;2.72;;;;;;;;;;5067916;28;20044;-77
2022/10/12 04:36:52;;;;;;;4.40;2.17;;;;;;;;;;5068036;28;20427;-76
2022/10/12 04:39:18;;;;;;;3.03;2.20;;;;;;;;;;5051148;28;20035;-77
2022/10/12 04:41:44;;;;;;;4.47;2.17;;;;;;;;;;5064806;28;20075;-77
2022/10/12 04:44:10;;;;;;;4.78;2.40;;;;;;;;;;5068494;28;20028;-76
2022/10/12 04:46:36;;;;;;;3.70;2.42;;;;;;;;;;5062767;28;20032;-76
2022/10/12 04:49:02;;;;;;;3.47;2.35;;;;;;;;;;5061211;28;20060;-76
2022/10/12 04:51:28;;;;;;;5.55;2.88;;;;;;;;;;5066664;28;20451;-77
2022/10/12 04:53:55;;;;;;;4.35;2.38;;;;;;;;;;5047162;28;20027;-76
2022/10/12 04:56:21;;;;;;;4.70;2.33;;;;;;;;;;5066039;28;20132;-78
2022/10/12 04:58:47;;;;;;;5.13;2.53;;;;;;;;;;5066032;28;20021;-77
2022/10/12 05:01:13;;;;;;;3.00;2.70;;;;;;;;;;5064215;28;20039;-76
2022/10/12 05:03:46;;;;;;;5.05;2.20;;;;;;;;;;5089336;28;20103;-79
2022/10/12 05:06:12;;;;;;;5.40;2.30;;;;;;;;;;5080467;28;20544;-77
2022/10/12 05:08:38;;;;;;;2.90;2.00;;;;;;;;;;5063333;28;20088;-78
2022/10/12 05:11:04;;;;;;;6.10;2.10;;;;;;;;;;5060731;28;20028;-77
2022/10/12 05:13:30;;;;;;;2.97;2.00;;;;;;;;;;5049114;28;20028;-77
2022/10/12 05:15:56;;;;;;;1.70;1.60;;;;;;;;;;5069467;28;20048;-76
2022/10/12 05:18:22;;;;;;;5.22;1.92;;;;;;;;;;5044658;28;20030;-77
2022/10/12 05:20:48;;;;;;;3.72;2.17;;;;;;;;;;5060435;28;20032;-76
2022/10/12 05:23:14;;;;;;;4.13;2.13;;;;;;;;;;5045872;28;20127;-75
2022/10/12 05:25:41;;;;;;;2.08;1.88;;;;;;;;;;5043584;28;20037;-76
2022/10/12 05:28:07;;;;;;;4.03;1.67;;;;;;;;;;5042113;28;20039;-77
2022/10/12 05:30:33;;;;;;;1.67;1.58;;;;;;;;;;5050356;28;20039;-77
2022/10/12 05:33:00;;;;;;;2.83;1.55;;;;;;;;;;5054413;28;20036;-76
2022/10/12 05:35:26;;;;;;;4.07;1.90;;;;;;;;;;5052622;28;20100;-76
2022/10/12 05:37:52;;;;;;;2.65;1.80;;;;;;;;;;5042656;28;20053;-75
2022/10/12 05:40:18;;;;;;;1.50;1.40;;;;;;;;;;5040893;28;20124;-76
2022/10/12 05:42:44;;;;;;;3.25;1.70;;;;;;;;;;5040845;28;20504;-76
2022/10/12 05:45:11;;;;;;;2.58;2.25;;;;;;;;;;5045295;28;20052;-77
2022/10/12 05:47:37;;;;;;;2.17;1.60;;;;;;;;;;5045824;28;20029;-76
2022/10/12 05:50:03;;;;;;;2.00;1.80;;;;;;;;;;5052981;28;20075;-77
2022/10/12 05:52:29;;;;;;;4.53;1.65;;;;;;;;;;5048224;28;20025;-76
2022/10/12 05:54:56;;;;;;;3.67;1.60;;;;;;;;;;5043835;28;20032;-78
2022/10/12 05:57:22;;;;;;;3.72;2.05;;;;;;;;;;5043322;28;20067;-77
2022/10/12 05:59:48;;;;;;;1.75;1.38;;;;;;;;;;5032003;28;20029;-78
2022/10/12 06:02:15;;;;;;;2.13;1.50;;;;;;;;;;5047599;28;20036;-76
2022/10/12 06:04:41;;;;;;;1.30;1.20;;;;;;;;;;5046769;28;20472;-78
2022/10/12 06:07:07;;;;;;;2.83;1.63;;;;;;;;;;5046247;28;20043;-77
2022/10/12 06:09:33;;;;;;;3.95;3.65;;;;;;;;;;5046331;28;20029;-76
2022/10/12 06:11:59;;;;;;;1.55;1.40;;;;;;;;;;5047037;28;20136;-77
2022/10/12 06:14:25;;;;;;;2.95;1.70;;;;;;;;;;5046936;28;20025;-77
2022/10/12 06:16:51;;;;;;;2.85;1.80;;;;;;;;;;5046218;28;20030;-76
2022/10/12 06:19:18;;;;;;;1.70;1.60;;;;;;;;;;5040459;28;20025;-76
2022/10/12 06:21:44;;;;;;;3.28;1.60;;;;;;;;;;5046208;28;20044;-76
2022/10/12 06:24:10;;;;;;;1.70;1.60;;;;;;;;;;5043185;28;20049;-76
2022/10/12 06:26:36;;;;;;;1.50;1.40;;;;;;;;;;5039576;28;20426;-76
2022/10/12 06:29:02;;;;;;;3.30;1.55;;;;;;;;;;5044924;28;20032;-76
2022/10/12 06:31:31;;;;;;;2.50;1.83;;;;;;;;;;5044255;28;20041;-79
2022/10/12 06:34:06;;;;;;;1.92;1.73;;;;;;;;;;5055605;28;20355;-76
2022/10/12 06:36:32;;;;;;;1.73;1.50;;;;;;;;;;5041490;28;20025;-76
2022/10/12 06:38:58;;;;;;;1.60;1.50;;;;;;;;;;5043232;28;20020;-76
2022/10/12 06:41:24;;;;;;;1.40;1.30;;;;;;;;;;5035318;28;20392;-76
2022/10/12 06:43:50;;;;;;;1.60;1.50;;;;;;;;;;5031589;28;20437;-76
2022/10/12 06:46:17;;;;;;;1.77;1.67;;;;;;;;;;5038952;28;20102;-76
2022/10/12 06:48:43;;;;;;;1.50;1.40;;;;;;;;;;5038079;28;20041;-76
2022/10/12 06:51:09;;;;;;;2.85;1.50;;;;;;;;;;5042820;28;20111;-76
2022/10/12 06:53:35;;;;;;;1.17;1.17;;;;;;;;;;5043773;28;20028;-77
2022/10/12 06:56:08;;;;;;;1.40;1.30;;;;;;;;;;5046156;28;20552;-77
2022/10/12 06:58:34;;;;;;;1.55;1.40;;;;;;;;;;5047671;28;20025;-76
2022/10/12 07:01:04;;;;;;;1.60;1.50;;;;;;;;;;5037503;28;20359;-76
2022/10/12 07:03:30;;;;;;;1.27;1.23;;;;;;;;;;5045346;28;20029;-75
2022/10/12 07:06:10;;;;;;;1.50;1.40;;;;;;;;;;5044657;28;20495;-76
2022/10/12 07:08:36;;;;;;;1.83;1.50;;;;;;;;;;5033340;28;20029;-74
2022/10/12 07:11:03;;;;;;;2.22;1.60;;;;;;;;;;5051718;28;20473;-76
2022/10/12 07:13:29;;;;;;;2.20;1.70;;;;;;;;;;5048368;28;20029;-76
2022/10/12 07:15:55;;;;;;;2.00;1.50;;;;;;;;;;5042203;28;20022;-76
2022/10/12 07:18:21;;;;;;;3.13;1.80;;;;;;;;;;5048535;28;20033;-76
2022/10/12 07:20:47;;;;;;;2.80;2.10;;;;;;;;;;5053417;28;20025;-76
2022/10/12 07:23:13;;;;;;;2.17;1.80;;;;;;;;;;5044849;28;20061;-76
2022/10/12 07:25:40;;;;;;;1.77;1.40;;;;;;;;;;5052350;28;20063;-77
2022/10/12 07:28:06;;;;;;;3.45;1.73;;;;;;;;;;5041914;28;20029;-76
2022/10/12 07:30:32;;;;;;;1.85;1.70;;;;;;;;;;5054976;28;20106;-76
2022/10/12 07:32:58;;;;;;;2.33;1.90;;;;;;;;;;5049632;28;20053;-76
2022/10/12 07:35:25;;;;;;;2.25;2.05;;;;;;;;;;5048954;28;20053;-76
2022/10/12 07:37:51;;;;;;;1.60;1.50;;;;;;;;;;5048633;28;20049;-76
2022/10/12 07:40:17;;;;;;;2.03;1.67;;;;;;;;;;5044089;28;20092;-76
2022/10/12 07:42:43;;;;;;;1.58;1.48;;;;;;;;;;5045148;28;20082;-76
2022/10/12 07:45:09;;;;;;;1.73;1.60;;;;;;;;;;5046990;28;20041;-75
2022/10/12 07:47:35;;;;;;;2.80;2.30;;;;;;;;;;5047895;28;20030;-76
2022/10/12 07:50:01;;;;;;;1.90;1.70;;;;;;;;;;5048044;28;20033;-76
2022/10/12 07:52:27;;;;;;;2.38;1.60;;;;;;;;;;5048888;28;20060;-76
2022/10/12 07:54:54;;;;;;;3.35;1.70;;;;;;;;;;5050726;28;20450;-76
2022/10/12 07:57:20;;;;;;;4.22;1.80;;;;;;;;;;5048301;28;20029;-76
2022/10/12 07:59:46;;;;;;;1.70;1.60;;;;;;;;;;5039380;28;20032;-75
2022/10/12 08:02:12;;;;;;;3.35;1.90;;;;;;;;;;5047504;28;20029;-75
2022/10/12 08:04:38;;;;;;;3.55;1.70;;;;;;;;;;5045967;28;20481;-76
2022/10/12 08:07:04;;;;;;;1.70;1.50;;;;;;;;;;5048397;28;20021;-76
2022/10/12 08:09:30;;;;;;;1.73;1.60;;;;;;;;;;5049609;28;20099;-76
2022/10/12 08:11:57;;;;;;;2.30;1.70;;;;;;;;;;5051917;28;20029;-77
2022/10/12 08:14:23;;;;;;;3.45;1.77;;;;;;;;;;5044404;28;20071;-76
2022/10/12 08:16:49;;;;;;;5.15;2.05;;;;;;;;;;5047768;28;20489;-77
2022/10/12 08:19:15;;;;;;;2.50;1.60;;;;;;;;;;5048267;28;20519;-77
2022/10/12 08:21:41;;;;;;;1.80;1.52;;;;;;;;;;5056182;28;20032;-76
2022/10/12 08:24:08;;;;;;;2.50;1.65;;;;;;;;;;5046945;28;20053;-76
2022/10/12 08:26:35;;;;;;;4.82;1.98;;;;;;;;;;5049219;28;20048;-79
2022/10/12 08:29:03;;;;;;;3.03;1.60;;;;;;;;;;5038269;28;20523;-82
2022/10/12 08:31:29;;;;;;;1.98;1.60;;;;;;;;;;5039729;28;20410;-76
2022/10/12 08:33:59;;;;;;;2.65;1.95;;;;;;;;;;5054614;28;20103;-77
2022/10/12 08:36:25;;;;;;;2.30;1.83;;;;;;;;;;5045079;28;20021;-76
2022/10/12 08:38:55;;;;;;;2.47;1.80;;;;;;;;;;5051246;28;20064;-76
2022/10/12 08:41:21;;;;;;;1.90;1.70;;;;;;;;;;5045304;28;20038;-76
2022/10/12 08:43:53;;;;;;;2.58;1.80;;;;;;;;;;5049859;28;20108;-76
2022/10/12 08:46:20;;;;;;;2.17;1.80;;;;;;;;;;5043573;28;20033;-76
2022/10/12 08:48:50;;;;;;;2.78;2.00;;;;;;;;;;5050046;28;20029;-76
2022/10/12 08:51:18;;;;;;;1.70;1.60;;;;;;;;;;5048924;28;20119;-76
2022/10/12 08:54:02;;;;;;;4.22;1.80;;;;;;;;;;5045563;28;20053;-76
2022/10/12 08:56:28;;;;;;;2.78;1.90;;;;;;;;;;5044801;28;20049;-76
2022/10/12 08:58:55;;;;;;;3.85;1.95;;;;;;;;;;5052264;28;20085;-76
2022/10/12 09:01:25;;;;;;;5.15;2.20;;;;;;;;;;5046177;28;20444;-76
2022/10/12 09:04:08;;;;;;;3.08;2.10;;;;;;;;;;5051988;28;20043;-76
2022/10/12 09:06:37;;;;;;;2.53;2.30;;;;;;;;;;5048486;28;20036;-76
2022/10/12 09:09:03;;;;;;;3.50;2.47;;;;;;;;;;5043263;28;20482;-76
2022/10/12 09:11:47;;;;;;;3.22;2.35;;;;;;;;;;5052556;28;20025;-76
2022/10/12 09:14:17;;;;;;;2.78;2.05;;;;;;;;;;5041043;28;20115;-76
2022/10/12 09:16:45;;;;;;;4.95;2.28;;;;;;;;;;5035128;28;20109;-76
2022/10/12 09:19:14;;;;;;;2.97;2.05;;;;;;;;;;5048708;28;20029;-77
2022/10/12 09:21:41;;;;;;;6.95;2.25;;;;;;;;;;5056922;28;20559;-76
2022/10/12 09:24:13;;;;;;;2.67;2.35;;;;;;;;;;5046136;28;20703;-76
2022/10/12 09:26:39;;;;;;;3.97;2.28;;;;;;;;;;5036295;28;20093;-76
2022/10/12 09:29:21;;;;;;;5.78;2.75;;;;;;;;;;5039503;28;20025;-76
2022/10/12 09:31:47;;;;;;;5.03;2.28;;;;;;;;;;5039980;28;20056;-76
2022/10/12 09:34:13;;;;;;;4.85;3.05;;;;;;;;;;5045420;28;20025;-76
2022/10/12 09:36:40;;;;;;;3.03;2.10;;;;;;;;;;5044687;28;20025;-77
2022/10/12 09:39:11;;;;;;;6.95;2.60;;;;;;;;;;5042736;28;20120;-76
2022/10/12 09:41:41;;;;;;;2.80;2.00;;;;;;;;;;5047969;28;20032;-76
2022/10/12 09:44:12;;;;;;;3.78;2.80;;;;;;;;;;5041278;28;20033;-75
2022/10/12 09:46:47;;;;;;;3.50;2.20;;;;;;;;;;5044973;28;20079;-76
2022/10/12 09:49:13;;;;;;;6.65;2.92;;;;;;;;;;5040307;28;20024;-76
2022/10/12 09:51:40;;;;;;;7.30;4.38;;;;;;;;;;5044778;28;20033;-76
2022/10/12 09:54:06;;;;;;;7.22;3.47;;;;;;;;;;5045642;28;20051;-76
2022/10/12 09:56:38;;;;;;;8.18;3.95;;;;;;;;;;5044944;28;20537;-76
2022/10/12 09:59:06;;;;;;;6.65;3.97;;;;;;;;;;5041581;28;20018;-75
2022/10/12 10:01:34;;;;;;;8.15;4.25;;;;;;;;;;5040154;28;20078;-76
2022/10/12 10:04:08;;;;;;;5.32;3.60;;;;;;;;;;5044247;28;20043;-76
2022/10/12 10:06:35;;;;;;;7.57;4.18;;;;;;;;;;5053111;28;20040;-76
2022/10/12 10:09:01;;;;;;;19.95;5.45;;;;;;;;;;5037290;28;20037;-77
2022/10/12 10:11:30;;;;;;;7.25;2.90;;;;;;;;;;5049766;28;20067;-77
2022/10/12 10:13:57;;;;;;;4.78;2.92;;;;;;;;;;5046632;28;20129;-76
2022/10/12 10:16:25;;;;;;;5.35;3.75;;;;;;;;;;5039509;28;20777;-76
2022/10/12 10:18:59;;;;;;;5.65;3.10;;;;;;;;;;5041169;28;20079;-76
2022/10/12 10:21:31;;;;;;;6.30;3.45;;;;;;;;;;5049659;28;20037;-76
2022/10/12 10:24:17;;;;;;;4.70;2.55;;;;;;;;;;5047651;28;20448;-76
2022/10/12 10:26:43;;;;;;;;;;;;;;;;;;5045935;28;20501;-76
2022/10/12 10:29:17;;;;;;;7.32;3.22;;;;;;;;;;5046064;28;19912;-76
2022/10/12 10:31:45;;;;;;;5.72;2.78;;;;;;;;;;5046887;28;20727;-77
2022/10/12 10:34:17;;;;;;;4.13;2.83;;;;;;;;;;5045441;28;20772;-76
2022/10/12 10:36:54;;;;;;;3.33;2.30;;;;;;;;;;5046295;28;20030;-77
2022/10/12 10:39:24;;;;;;;5.70;3.50;;;;;;;;;;5037680;28;20057;-77
2022/10/12 10:41:52;;;;;;;4.00;2.80;;;;;;;;;;5044707;28;20017;-75
2022/10/12 10:44:22;;;;;;;8.27;3.03;;;;;;;;;;5057138;28;20513;-77
2022/10/12 10:46:48;;;;;;;5.63;3.00;;;;;;;;;;5049504;28;20025;-77
2022/10/12 10:49:34;;;;;;;4.78;2.65;;;;;;;;;;5045067;28;20043;-77
2022/10/12 10:52:01;;;;;;;13.32;3.65;;;;;;;;;;5043564;28;20033;-77
2022/10/12 10:54:29;;;;;;;8.02;3.20;;;;;;;;;;5047094;28;20026;-78
2022/10/12 10:57:10;;;;;;;7.88;3.45;;;;;;;;;;5043553;28;20032;-77
2022/10/12 10:59:41;;;;;;;9.15;4.63;;;;;;;;;;5045834;28;20386;-76
2022/10/12 11:02:19;;;;;;;10.43;3.13;;;;;;;;;;5041032;28;20044;-78
2022/10/12 11:04:47;;;;;;;7.07;2.65;;;;;;;;;;5044055;28;20037;-77
2022/10/12 11:07:21;;;;;;;7.68;3.00;;;;;;;;;;5047379;28;20470;-78
2022/10/12 11:09:50;;;;;;;6.40;3.53;;;;;;;;;;5041797;28;20033;-76
2022/10/12 11:12:23;;;;;;;8.30;3.17;;;;;;;;;;5048361;28;20028;-77
2022/10/12 11:14:51;;;;;;;6.38;3.78;;;;;;;;;;5045430;28;20025;-78
2022/10/12 11:17:22;;;;;;;7.68;3.63;;;;;;;;;;5043627;28;20032;-79
2022/10/12 11:19:51;;;;;;;6.15;2.72;;;;;;;;;;5042099;28;20036;-77
2022/10/12 11:22:40;;;;;;;12.63;3.70;;;;;;;;;;5041496;28;20037;-78
2022/10/12 11:25:14;;;;;;;7.60;3.40;;;;;;;;;;5011879;28;20067;-78
2022/10/12 11:27:41;;;;;;;12.57;3.58;;;;;;;;;;5031759;28;20057;-78
2022/10/12 11:30:13;;;;;;;9.23;3.10;;;;;;;;;;5024872;28;20041;-77
2022/10/12 11:32:42;;;;;;;4.88;3.22;;;;;;;;;;5018273;28;20026;-77
2022/10/12 11:35:16;;;;;;;8.63;2.97;;;;;;;;;;5023765;28;20110;-77
2022/10/12 11:37:44;;;;;;;9.57;3.50;;;;;;;;;;5020472;28;20026;-78
2022/10/12 11:40:43;;;;;;;8.65;2.70;;;;;;;;;;5019808;28;20025;-78
2022/10/12 11:43:13;;;;;;;6.75;2.80;;;;;;;;;;4994946;28;20087;-77
2022/10/12 11:45:46;;;;;;;7.55;3.22;;;;;;;;;;5025555;28;20474;-76
2022/10/12 11:48:20;;;;;;;9.18;3.20;;;;;;;;;;5017748;28;20391;-76
2022/10/12 11:50:47;;;;;;;7.43;3.72;;;;;;;;;;5024362;28;20535;-76
2022/10/12 11:53:18;;;;;;;7.63;3.92;;;;;;;;;;5021431;28;20036;-77
2022/10/12 11:55:56;;;;;;;9.63;3.00;;;;;;;;;;5051798;28;20493;-77
2022/10/12 11:58:27;;;;;;;6.47;3.28;;;;;;;;;;5020566;28;20056;-78
2022/10/12 12:01:05;;;;;;;18.25;4.07;;;;;;;;;;5024866;28;20030;-75
2022/10/12 12:03:53;;;;;;;8.63;2.78;;;;;;;;;;5022488;28;20041;-77
2022/10/12 12:06:29;;;;;;;8.88;3.13;;;;;;;;;;5019126;28;20036;-76
2022/10/12 12:08:55;;;;;;;;;;;;;;;;;;5022010;28;20053;-76
2022/10/12 12:11:27;;;;;;;6.50;3.65;;;;;;;;;;5034785;28;19959;-76
2022/10/12 12:14:17;;;;;;;7.32;3.15;;;;;;;;;;5032428;28;20572;-76
2022/10/12 12:16:43;;;;;;;9.85;3.75;;;;;;;;;;5001352;28;20961;-77
2022/10/12 12:19:15;;;;;;;11.00;3.72;;;;;;;;;;5013725;28;20116;-76
2022/10/12 12:22:00;;;;;;;8.55;4.22;;;;;;;;;;5039920;28;20056;-77
2022/10/12 12:24:28;;;;;;;11.95;4.72;;;;;;;;;;5046623;28;20402;-77
2022/10/12 12:26:54;;;;;;;9.40;4.57;;;;;;;;;;5058527;28;20441;-76
2022/10/12 12:29:26;;;;;;;9.25;3.60;;;;;;;;;;5061190;28;20381;-76
2022/10/12 12:31:55;;;;;;;6.55;3.70;;;;;;;;;;5063223;28;20063;-77
2022/10/12 12:34:22;;;;;;;11.27;3.75;;;;;;;;;;5051712;28;20035;-76
2022/10/12 12:36:50;;;;;;;13.60;3.72;;;;;;;;;;5070173;28;20103;-76
2022/10/12 12:39:25;;;;;;;7.90;4.03;;;;;;;;;;5056257;28;20035;-76
2022/10/12 12:41:54;;;;;;;8.38;4.13;;;;;;;;;;5056712;28;20040;-77
2022/10/12 12:44:41;;;;;;;8.88;3.72;;;;;;;;;;5068243;28;20127;-75
2022/10/12 12:47:08;;;;;;;9.35;4.85;;;;;;;;;;5049074;28;20036;-77
2022/10/12 12:49:37;;;;;;;8.85;3.95;;;;;;;;;;5052494;28;20043;-76
2022/10/12 12:52:19;;;;;;;17.02;4.13;;;;;;;;;;5047473;28;20069;-77
2022/10/12 12:54:54;;;;;;;9.63;3.75;;;;;;;;;;5052046;28;20119;-77
2022/10/12 12:57:20;;;;;;;;;;;;;;;;;;5048193;28;20024;-76
2022/10/12 12:59:46;;;;;;;9.68;2.83;;;;;;;;;;5059633;28;19915;-76
2022/10/12 13:02:18;;;;;;;11.55;3.38;;;;;;;;;;5071393;28;20516;-77
2022/10/12 13:05:03;;;;;;;7.03;4.10;;;;;;;;;;5050675;28;20037;-77
2022/10/12 13:07:32;;;;;;;10.07;4.00;;;;;;;;;;5051640;28;20036;-76
2022/10/12 13:10:04;;;;;;;8.93;3.92;;;;;;;;;;5048128;28;20038;-76
2022/10/12 13:12:49;;;;;;;8.43;3.65;;;;;;;;;;5069217;28;20032;-76
2022/10/12 13:15:27;;;;;;;7.47;3.28;;;;;;;;;;5062284;28;20020;-76
2022/10/12 13:18:01;;;;;;;13.43;4.57;;;;;;;;;;5062249;28;20055;-76
2022/10/12 13:20:30;;;;;;;14.73;6.28;;;;;;;;;;5054623;28;20379;-76
2022/10/12 13:22:57;;;;;;;8.25;3.22;;;;;;;;;;5070386;28;20044;-77
2022/10/12 13:25:46;;;;;;;4.80;2.60;;;;;;;;;;5068641;28;20043;-77
2022/10/12 13:28:16;;;;;;;8.13;3.17;;;;;;;;;;5050772;28;20037;-76
2022/10/12 13:30:50;;;;;;;8.50;3.10;;;;;;;;;;5060172;28;20021;-77
2022/10/12 13:33:35;;;;;;;10.18;2.97;;;;;;;;;;5061661;28;20016;-77
2022/10/12 13:36:04;;;;;;;8.23;2.72;;;;;;;;;;5062601;28;20390;-77
2022/10/12 13:38:32;;;;;;;10.05;3.35;;;;;;;;;;5054206;28;20016;-77
2022/10/12 13:41:02;;;;;;;8.93;3.10;;;;;;;;;;5048100;28;20020;-77
2022/10/12 13:43:32;;;;;;;9.48;3.28;;;;;;;;;;5050388;28;20032;-77
2022/10/12 13:45:58;;;;;;;7.15;2.83;;;;;;;;;;5065766;28;20028;-76
2022/10/12 13:48:25;;;;;;;11.75;3.00;;;;;;;;;;5077825;28;20029;-75
2022/10/12 13:50:51;;;;;;;8.15;2.90;;;;;;;;;;5049729;28;20351;-76
2022/10/12 13:53:17;;;;;;;9.70;2.60;;;;;;;;;;5052211;28;20064;-76
2022/10/12 13:55:49;;;;;;;7.35;3.20;;;;;;;;;;5038476;28;20021;-77
2022/10/12 13:58:24;;;;;;;7.55;3.53;;;;;;;;;;5070099;28;20037;-76
2022/10/12 14:00:50;;;;;;;9.90;2.90;;;;;;;;;;5059148;28;20455;-76
2022/10/12 14:03:16;;;;;;;8.27;2.45;;;;;;;;;;5050484;28;20653;-77
2022/10/12 14:05:44;;;;;;;5.72;3.17;;;;;;;;;;5050314;28;20055;-76
2022/10/12 14:08:14;;;;;;;11.82;3.60;;;;;;;;;;5068438;28;20024;-76
2022/10/12 14:10:43;;;;;;;7.25;2.80;;;;;;;;;;5064011;28;20039;-76
2022/10/12 14:13:13;;;;;;;10.15;3.30;;;;;;;;;;5069338;28;20030;-76
2022/10/12 14:15:40;;;;;;;8.15;2.35;;;;;;;;;;5066933;28;20020;-76
2022/10/12 14:18:25;;;;;;;10.30;3.10;;;;;;;;;;5050040;28;20473;-76
2022/10/12 14:20:51;;;;;;;5.75;3.03;;;;;;;;;;5068992;28;20075;-78
2022/10/12 14:23:21;;;;;;;13.80;3.03;;;;;;;;;;5047972;28;20125;-76
2022/10/12 14:25:52;;;;;;;13.40;4.30;;;;;;;;;;5030669;28;20786;-76
2022/10/12 14:28:29;;;;;;;6.05;2.80;;;;;;;;;;5035661;28;20044;-76
2022/10/12 14:30:55;;;;;;;8.38;2.72;;;;;;;;;;5032165;28;20025;-75
2022/10/12 14:33:23;;;;;;;8.20;3.08;;;;;;;;;;5047860;28;20029;-76
2022/10/12 14:35:50;;;;;;;5.38;3.38;;;;;;;;;;5042978;28;20025;-76
2022/10/12 14:38:29;;;;;;;12.25;4.22;;;;;;;;;;5046553;28;20409;-76
2022/10/12 14:40:55;;;;;;;10.57;3.15;;;;;;;;;;5041811;28;20033;-76
2022/10/12 14:43:23;;;;;;;10.38;3.15;;;;;;;;;;5043541;28;20381;-76
2022/10/12 14:45:50;;;;;;;8.98;2.75;;;;;;;;;;5044386;28;20048;-76
2022/10/12 14:48:18;;;;;;;6.20;2.97;;;;;;;;;;5044081;28;20358;-75
2022/10/12 14:50:44;;;;;;;7.78;2.78;;;;;;;;;;5043025;28;20094;-76
2022/10/12 14:53:12;;;;;;;10.20;4.03;;;;;;;;;;5045551;28;20103;-75
2022/10/12 14:55:40;;;;;;;9.60;2.58;;;;;;;;;;5048149;28;20073;-75